Time;durP1;ratioP1;P1;durP2;ratioP2;P2;SDS_P1;SDS_P2;PMS_P1;PMS_P2;Temp;Humidity;BMP_temperature;BMP_pressure;BME280_temperature;BME280_humidity;BME280_pressure;Samples;Min_cycle;Max_cycle;Signal;HPM_P1;HPM_P2
2021/04/01 00:00:20;;;;;;;14.47;7.47;;;11.60;99.90;;;;;;5076256;28;20166;-65
2021/04/01 00:02:49;;;;;;;10.73;7.23;;;11.70;99.90;;;;;;5076126;28;20241;-65
2021/04/01 00:05:15;;;;;;;12.43;7.30;;;11.60;99.90;;;;;;5074954;28;20435;-66
2021/04/01 00:07:40;;;;;;;12.97;7.60;;;11.70;99.90;;;;;;5076195;28;20392;-65
2021/04/01 00:10:11;;;;;;;14.17;7.80;;;11.60;99.90;;;;;;5076054;28;20503;-66
2021/04/01 00:12:37;;;;;;;9.30;7.40;;;11.60;99.90;;;;;;5076050;28;20628;-66
2021/04/01 00:15:04;;;;;;;10.37;8.03;;;11.60;99.90;;;;;;5075425;28;20459;-66
2021/04/01 00:17:30;;;;;;;10.63;7.90;;;11.60;99.90;;;;;;5076048;28;20162;-66
2021/04/01 00:19:55;;;;;;;9.73;8.23;;;11.60;99.90;;;;;;5074676;28;20899;-65
2021/04/01 00:22:21;;;;;;;14.03;8.10;;;11.50;99.90;;;;;;5075760;28;20229;-66
2021/04/01 00:24:46;;;;;;;11.20;7.23;;;11.50;99.90;;;;;;5075801;28;20156;-65
2021/04/01 00:27:12;;;;;;;16.50;8.33;;;11.60;99.90;;;;;;5075833;28;20162;-65
2021/04/01 00:29:37;;;;;;;11.40;7.30;;;11.60;99.90;;;;;;5075698;28;20502;-65
2021/04/01 00:32:04;;;;;;;11.03;7.00;;;11.50;99.90;;;;;;5074888;28;20219;-65
2021/04/01 00:34:29;;;;;;;9.47;8.10;;;11.50;99.90;;;;;;5075756;28;20163;-66
2021/04/01 00:36:55;;;;;;;10.80;7.20;;;11.50;99.90;;;;;;5075842;28;20392;-66
2021/04/01 00:39:20;;;;;;;12.70;8.50;;;11.50;99.90;;;;;;5075678;28;20569;-65
2021/04/01 00:41:46;;;;;;;12.93;8.33;;;11.50;99.90;;;;;;5075560;28;20201;-66
2021/04/01 00:44:13;;;;;;;8.13;6.57;;;11.50;99.90;;;;;;5075385;28;20190;-66
2021/04/01 00:46:39;;;;;;;9.23;7.70;;;11.40;99.90;;;;;;5075534;28;20183;-65
2021/04/01 00:49:04;;;;;;;10.80;7.53;;;11.40;99.90;;;;;;5074577;28;20955;-65
2021/04/01 00:51:30;;;;;;;13.83;8.00;;;11.40;99.90;;;;;;5069704;28;20207;-65
2021/04/01 00:53:56;;;;;;;11.90;8.20;;;11.40;99.90;;;;;;5055288;28;20668;-66
2021/04/01 00:56:24;;;;;;;8.93;7.47;;;11.40;99.90;;;;;;5054763;28;20202;-66
2021/04/01 00:58:50;;;;;;;9.47;7.13;;;11.40;99.90;;;;;;5055148;28;20177;-65
2021/04/01 01:03:58;;;;;;;14.20;8.43;;;11.40;99.90;;;;;;5131334;27;20508;-64
2021/04/01 01:06:24;;;;;;;9.00;7.80;;;11.40;99.90;;;;;;5118517;28;20480;-64
2021/04/01 01:08:49;;;;;;;11.50;8.30;;;11.50;99.90;;;;;;5110702;28;20164;-67
2021/04/01 01:11:15;;;;;;;10.90;8.13;;;11.50;99.90;;;;;;5110627;28;20158;-67
2021/04/01 01:13:40;;;;;;;11.17;7.90;;;11.50;99.90;;;;;;5110668;28;20214;-66
2021/04/01 01:16:06;;;;;;;10.83;7.93;;;11.50;99.90;;;;;;5110595;28;20237;-67
2021/04/01 01:18:32;;;;;;;7.73;6.87;;;11.50;99.90;;;;;;5110612;28;20161;-67
2021/04/01 01:20:59;;;;;;;9.60;7.73;;;11.50;99.90;;;;;;5110616;28;20387;-66
2021/04/01 01:23:26;;;;;;;13.00;8.20;;;11.50;99.90;;;;;;5110970;28;20235;-67
2021/04/01 01:25:53;;;;;;;11.83;8.10;;;11.50;99.90;;;;;;5110370;28;20398;-67
2021/04/01 01:28:19;;;;;;;17.33;8.80;;;11.50;99.90;;;;;;5110471;28;20393;-66
2021/04/01 01:30:45;;;;;;;10.70;6.80;;;11.50;99.90;;;;;;5110286;28;20518;-67
2021/04/01 01:33:16;;;;;;;11.10;7.40;;;11.50;99.90;;;;;;5110301;28;20186;-66
2021/04/01 01:35:42;;;;;;;10.73;7.73;;;11.50;99.90;;;;;;5110188;28;20169;-67
2021/04/01 01:38:08;;;;;;;11.00;7.47;;;11.40;99.90;;;;;;5110060;28;20766;-67
2021/04/01 01:40:36;;;;;;;10.47;7.27;;;11.40;99.90;;;;;;5111019;28;20184;-66
2021/04/01 01:43:05;;;;;;;9.70;7.27;;;11.50;99.90;;;;;;5109988;28;20439;-67
2021/04/01 01:45:31;;;;;;;9.63;7.70;;;11.40;99.90;;;;;;5110103;28;20452;-66
2021/04/01 01:47:59;;;;;;;13.00;8.77;;;11.40;99.90;;;;;;5110144;28;20396;-67
2021/04/01 01:50:29;;;;;;;8.73;7.77;;;11.40;99.90;;;;;;5109840;28;20403;-66
2021/04/01 01:52:54;;;;;;;11.23;7.83;;;11.40;99.90;;;;;;5110088;28;20423;-66
2021/04/01 01:55:20;;;;;;;14.70;8.23;;;11.40;99.90;;;;;;5109903;28;20399;-67
2021/04/01 01:57:46;;;;;;;9.03;8.13;;;11.40;99.90;;;;;;5125262;28;20427;-67
2021/04/01 02:05:28;;;;;;;17.17;8.00;;;11.30;99.90;;;;;;5131245;27;20943;-65
2021/04/01 02:07:54;;;;;;;9.67;7.53;;;11.30;99.90;;;;;;5131370;28;20393;-65
2021/04/01 02:10:23;;;;;;;12.43;9.10;;;11.30;99.90;;;;;;5131448;28;20460;-65
2021/04/01 02:12:49;;;;;;;12.47;9.53;;;11.30;99.90;;;;;;5129892;28;20154;-65
2021/04/01 02:15:17;;;;;;;11.30;8.03;;;11.30;99.90;;;;;;5111185;28;20937;-65
2021/04/01 02:17:43;;;;;;;12.77;7.53;;;11.30;99.90;;;;;;5109520;28;20164;-65
2021/04/01 02:20:10;;;;;;;14.17;8.87;;;11.30;99.90;;;;;;5110780;28;20389;-65
2021/04/01 02:22:36;;;;;;;13.93;8.57;;;11.30;99.90;;;;;;5110624;28;20676;-65
2021/04/01 02:25:03;;;;;;;10.40;7.50;;;11.20;99.90;;;;;;5110306;28;20436;-65
2021/04/01 02:27:29;;;;;;;10.20;8.90;;;11.20;99.90;;;;;;5109117;28;20423;-65
2021/04/01 02:29:54;;;;;;;13.67;8.70;;;11.20;99.90;;;;;;5110489;28;20858;-65
2021/04/01 02:32:20;;;;;;;10.90;8.77;;;11.20;99.90;;;;;;5110806;28;20218;-65
2021/04/01 02:34:46;;;;;;;13.80;9.30;;;11.20;99.90;;;;;;5110317;28;20165;-65
2021/04/01 02:37:12;;;;;;;16.50;9.90;;;11.10;99.90;;;;;;5110171;28;20169;-65
2021/04/01 02:39:37;;;;;;;9.23;8.23;;;11.10;99.90;;;;;;5110615;28;20395;-65
2021/04/01 02:42:04;;;;;;;13.40;8.40;;;11.10;99.90;;;;;;5110139;28;20527;-65
2021/04/01 02:44:29;;;;;;;18.60;9.30;;;11.10;99.90;;;;;;5109910;28;20203;-65
2021/04/01 02:46:55;;;;;;;11.70;7.53;;;11.00;99.90;;;;;;5110714;28;20426;-65
2021/04/01 02:49:20;;;;;;;12.90;9.83;;;11.00;99.90;;;;;;5110117;27;20172;-65
2021/04/01 02:51:46;;;;;;;12.13;8.90;;;11.00;99.90;;;;;;5109819;28;20177;-65
2021/04/01 02:54:11;;;;;;;17.57;8.77;;;11.00;99.90;;;;;;5110195;28;20168;-65
2021/04/01 02:56:37;;;;;;;13.93;9.40;;;11.00;99.90;;;;;;5109875;28;20169;-65
2021/04/01 02:59:03;;;;;;;15.27;8.57;;;10.90;99.90;;;;;;5109772;28;20195;-65
2021/04/01 03:01:29;;;;;;;11.70;9.07;;;10.90;99.90;;;;;;5109890;28;20206;-65
2021/04/01 03:03:56;;;;;;;16.43;9.23;;;11.00;99.90;;;;;;5109793;28;20871;-65
2021/04/01 03:06:21;;;;;;;10.77;9.40;;;11.00;99.90;;;;;;5109849;28;20164;-65
2021/04/01 03:08:47;;;;;;;10.10;8.53;;;11.00;99.90;;;;;;5109611;28;20539;-65
2021/04/01 03:11:13;;;;;;;10.63;9.53;;;11.00;99.90;;;;;;5109445;28;20160;-65
2021/04/01 03:13:38;;;;;;;13.50;11.27;;;11.00;99.90;;;;;;5109552;28;20890;-65
2021/04/01 03:16:04;;;;;;;10.73;8.97;;;11.00;99.90;;;;;;5100366;28;20156;-65
2021/04/01 03:18:29;;;;;;;11.23;8.90;;;11.00;99.90;;;;;;5096193;28;20169;-65
2021/04/01 03:20:55;;;;;;;11.33;9.60;;;11.00;99.90;;;;;;5096136;28;20149;-65
2021/04/01 03:23:21;;;;;;;17.40;9.40;;;11.00;99.90;;;;;;5095947;28;20249;-65
2021/04/01 03:25:47;;;;;;;10.10;9.10;;;11.00;99.90;;;;;;5095699;28;20586;-65
2021/04/01 03:28:13;;;;;;;9.40;8.47;;;11.00;99.90;;;;;;5095716;28;20189;-65
2021/04/01 03:30:46;;;;;;;13.77;8.80;;;11.10;99.90;;;;;;5094825;28;20183;-65
2021/04/01 03:33:12;;;;;;;10.90;9.37;;;11.10;99.90;;;;;;5095848;28;20417;-65
2021/04/01 03:35:37;;;;;;;11.70;8.97;;;11.10;99.90;;;;;;5095445;28;20765;-65
2021/04/01 03:38:05;;;;;;;12.83;9.50;;;11.10;99.90;;;;;;5095918;28;20150;-65
2021/04/01 03:40:30;;;;;;;10.10;8.33;;;11.10;99.90;;;;;;5095580;28;20662;-65
2021/04/01 03:42:56;;;;;;;14.20;9.77;;;11.10;99.90;;;;;;5095917;28;20439;-65
2021/04/01 03:45:22;;;;;;;10.03;9.03;;;11.10;99.90;;;;;;5095215;28;20186;-65
2021/04/01 03:47:48;;;;;;;10.70;8.93;;;11.20;99.90;;;;;;5095473;28;20950;-65
2021/04/01 03:50:14;;;;;;;14.53;8.87;;;11.20;99.90;;;;;;5095217;28;20157;-65
2021/04/01 03:52:41;;;;;;;13.33;10.20;;;11.10;99.90;;;;;;5095083;28;20639;-65
2021/04/01 03:58:02;;;;;;;11.07;9.20;;;11.10;99.90;;;;;;5086690;28;20911;-65
2021/04/01 04:00:31;;;;;;;15.23;9.93;;;11.10;99.90;;;;;;5115666;28;20917;-65
2021/04/01 04:11:20;;;;;;;13.10;10.27;;;11.20;99.90;;;;;;5130843;28;20534;-64
2021/04/01 04:16:22;;;;;;;12.80;10.10;;;11.10;99.90;;;;;;5131350;27;20509;-64
2021/04/01 04:18:48;;;;;;;14.00;11.10;;;11.10;99.90;;;;;;5131327;28;20381;-64
2021/04/01 04:21:15;;;;;;;14.00;9.80;;;11.10;99.90;;;;;;5131481;28;20526;-64
2021/04/01 04:23:45;;;;;;;14.43;11.40;;;11.10;99.90;;;;;;5130250;28;20517;-64
2021/04/01 04:26:11;;;;;;;12.43;10.43;;;11.10;99.90;;;;;;5131789;27;20502;-64
2021/04/01 04:28:37;;;;;;;12.60;9.53;;;11.10;99.90;;;;;;5131227;27;20399;-64
2021/04/01 04:31:04;;;;;;;14.13;9.20;;;11.10;99.90;;;;;;5112606;28;20174;-64
2021/04/01 04:33:30;;;;;;;12.93;10.70;;;11.10;99.90;;;;;;5110462;28;20444;-64
2021/04/01 04:35:57;;;;;;;13.90;9.67;;;11.10;99.90;;;;;;5110512;28;20438;-64
2021/04/01 04:38:23;;;;;;;12.73;9.67;;;11.10;99.90;;;;;;5110807;28;20386;-64
2021/04/01 04:40:54;;;;;;;15.30;10.70;;;11.10;99.90;;;;;;5109418;28;20939;-64
2021/04/01 04:43:20;;;;;;;16.40;10.50;;;11.10;99.90;;;;;;5109165;28;20762;-64
2021/04/01 04:45:45;;;;;;;16.47;10.13;;;11.10;99.90;;;;;;5110165;28;20442;-64
2021/04/01 04:48:11;;;;;;;18.57;11.10;;;11.10;99.90;;;;;;5111085;28;20592;-64
2021/04/01 04:50:36;;;;;;;14.97;11.97;;;11.10;99.90;;;;;;5110660;28;20158;-64
2021/04/01 04:53:02;;;;;;;17.40;13.00;;;11.10;99.90;;;;;;5110415;28;20185;-64
2021/04/01 04:55:27;;;;;;;14.70;11.33;;;11.10;99.90;;;;;;5110289;28;20190;-64
2021/04/01 05:00:52;;;;;;;12.53;11.07;;;11.00;99.90;;;;;;5131383;27;21018;-64
2021/04/01 05:06:03;;;;;;;13.60;10.03;;;11.00;99.90;;;;;;5110053;28;20402;-64
2021/04/01 05:08:30;;;;;;;13.17;9.80;;;11.00;99.90;;;;;;5111160;28;20387;-64
2021/04/01 05:10:55;;;;;;;15.50;10.40;;;11.00;99.90;;;;;;5110984;28;20387;-64
2021/04/01 05:13:21;;;;;;;13.70;10.53;;;11.00;99.90;;;;;;5110692;28;20439;-64
2021/04/01 05:15:48;;;;;;;14.50;10.57;;;10.90;99.90;;;;;;5109464;28;20640;-64
2021/04/01 05:18:23;;;;;;;15.83;11.17;;;11.00;99.90;;;;;;5111051;28;20161;-64
2021/04/01 05:20:50;;;;;;;17.30;10.93;;;11.00;99.90;;;;;;5110243;28;20414;-64
2021/04/01 05:23:27;;;;;;;13.23;10.53;;;11.00;99.90;;;;;;5109744;28;20440;-64
2021/04/01 05:26:11;;;;;;;14.20;11.93;;;11.00;99.90;;;;;;5110521;28;20849;-64
2021/04/01 05:28:37;;;;;;;18.33;11.17;;;11.00;99.90;;;;;;5110683;28;20420;-64
2021/04/01 05:31:05;;;;;;;16.60;11.10;;;11.00;99.90;;;;;;5110561;28;20486;-64
2021/04/01 05:33:34;;;;;;;20.30;11.17;;;11.00;99.90;;;;;;5110510;28;20391;-64
2021/04/01 05:36:03;;;;;;;15.20;11.90;;;11.00;99.90;;;;;;5110727;28;20442;-64
2021/04/01 05:38:28;;;;;;;16.10;11.20;;;11.00;99.90;;;;;;5109903;28;20427;-64
2021/04/01 05:40:54;;;;;;;15.13;10.43;;;11.00;99.90;;;;;;5110197;28;20382;-65
2021/04/01 05:43:23;;;;;;;14.37;12.07;;;11.00;99.90;;;;;;5110379;28;20161;-64
2021/04/01 05:45:52;;;;;;;17.20;11.80;;;10.90;99.90;;;;;;5110359;28;20188;-64
2021/04/01 05:48:32;;;;;;;14.40;11.00;;;10.90;99.90;;;;;;5110017;28;20892;-64
2021/04/01 05:59:26;;;;;;;17.03;11.13;;;10.80;99.90;;;;;;5124384;28;20999;-65
2021/04/01 06:02:02;;;;;;;17.77;11.23;;;10.80;99.90;;;;;;5110944;28;20435;-64
2021/04/01 06:04:38;;;;;;;17.07;11.40;;;10.80;99.90;;;;;;5109901;28;20394;-64
2021/04/01 06:07:11;;;;;;;16.40;12.40;;;10.80;99.90;;;;;;5110645;28;20883;-64
2021/04/01 06:09:43;;;;;;;16.77;12.40;;;10.80;99.90;;;;;;5110490;28;20448;-64
2021/04/01 06:12:09;;;;;;;17.13;12.37;;;10.80;99.90;;;;;;5110040;28;20450;-64
2021/04/01 06:17:17;;;;;;;19.70;12.60;;;10.80;99.90;;;;;;5131455;27;20560;-65
2021/04/01 06:19:48;;;;;;;18.67;12.67;;;10.90;99.90;;;;;;5131593;27;20382;-65
2021/04/01 06:22:13;;;;;;;18.83;12.53;;;10.90;99.90;;;;;;5130099;28;20387;-65
2021/04/01 06:24:43;;;;;;;20.83;13.60;;;10.90;99.90;;;;;;5131662;27;20381;-65
2021/04/01 06:32:45;;;;;;;25.70;13.10;;;11.10;99.90;;;;;;5095961;28;20815;-64
2021/04/01 06:35:23;;;;;;;14.73;13.20;;;11.10;99.90;;;;;;5110850;28;20902;-64
2021/04/01 06:43:30;;;;;;;17.27;12.93;;;11.20;99.90;;;;;;5110896;27;20509;-64
2021/04/01 06:45:57;;;;;;;17.87;12.40;;;11.40;99.90;;;;;;5100751;28;20435;-64
2021/04/01 06:48:33;;;;;;;15.30;12.80;;;11.40;99.90;;;;;;5090764;28;20441;-64
2021/04/01 06:51:06;;;;;;;17.57;13.03;;;11.50;99.90;;;;;;5090580;28;20438;-64
2021/04/01 06:53:54;;;;;;;16.60;13.20;;;11.50;99.90;;;;;;5089530;28;20385;-64
2021/04/01 06:56:26;;;;;;;15.60;12.87;;;11.60;99.90;;;;;;5075551;28;20924;-64
2021/04/01 06:59:05;;;;;;;21.07;13.47;;;11.70;99.90;;;;;;5090936;28;20392;-64
2021/04/01 07:01:39;;;;;;;16.50;13.70;;;11.80;99.90;;;;;;5090511;28;20441;-64
2021/04/01 07:04:06;;;;;;;21.93;14.73;;;11.80;99.90;;;;;;5108667;28;20478;-65
2021/04/01 07:06:36;;;;;;;18.17;13.30;;;11.90;99.90;;;;;;5110574;28;20391;-66
2021/04/01 07:09:31;;;;;;;18.57;13.77;;;12.00;99.90;;;;;;5110686;28;20476;-64
2021/04/01 07:12:21;;;;;;;20.83;14.13;;;12.00;99.90;;;;;;5109429;28;20447;-65
2021/04/01 07:14:48;;;;;;;20.17;15.03;;;12.10;99.90;;;;;;5095794;28;20392;-66
2021/04/01 07:17:24;;;;;;;16.70;13.90;;;12.20;99.90;;;;;;5110461;28;20424;-64
2021/04/01 07:47:38;;;;;;;22.20;15.23;;;13.10;99.90;;;;;;5109700;28;20434;-65
2021/04/01 07:52:54;;;;;;;21.90;15.23;;;13.20;99.90;;;;;;5131350;27;20553;-64
2021/04/01 07:55:40;;;;;;;41.93;23.20;;;13.40;99.90;;;;;;5110669;28;20416;-64
2021/04/01 08:03:57;;;;;;;29.90;20.27;;;13.70;99.90;;;;;;5131426;27;21044;-65
2021/04/01 08:06:27;;;;;;;26.47;19.60;;;13.80;99.90;;;;;;5130538;28;20399;-65
2021/04/01 08:08:57;;;;;;;33.27;20.90;;;14.00;99.90;;;;;;5130089;28;20379;-65
2021/04/01 08:11:26;;;;;;;32.47;21.80;;;14.10;99.90;;;;;;5118390;27;20530;-65
2021/04/01 08:14:23;;;;;;;36.73;24.40;;;14.30;99.90;;;;;;5111084;28;20394;-65
2021/04/01 08:16:55;;;;;;;42.00;24.93;;;14.50;99.90;;;;;;5109598;28;20795;-65
2021/04/01 08:19:24;;;;;;;38.73;25.47;;;14.60;99.90;;;;;;5109501;28;20425;-65
2021/04/01 08:21:51;;;;;;;45.73;28.60;;;14.80;99.90;;;;;;5110311;28;20442;-65
2021/04/01 08:24:23;;;;;;;52.37;28.53;;;15.00;99.90;;;;;;5109545;28;20875;-65
2021/04/01 08:32:58;;;;;;;53.37;30.37;;;15.90;99.90;;;;;;5109491;28;20400;-65
2021/04/01 08:35:12;;;;;;;49.70;29.70;;;16.20;99.90;;;;;;5109430;28;20479;-65
2021/04/01 08:37:54;;;;;;;49.13;28.43;;;16.40;99.90;;;;;;5109238;28;20408;-65
2021/04/01 08:40:19;;;;;;;50.43;29.40;;;16.60;99.90;;;;;;5110656;28;20391;-65
2021/04/01 08:54:24;;;;;;;54.13;30.83;;;17.50;93.70;;;;;;5111022;27;20915;-64
2021/04/01 08:59:46;;;;;;;51.50;29.90;;;18.10;92.20;;;;;;5110977;27;20503;-64
2021/04/01 09:02:13;;;;;;;51.40;30.03;;;19.00;87.90;;;;;;5098430;28;20405;-64
2021/04/01 09:04:47;;;;;;;54.30;30.37;;;19.40;82.80;;;;;;5090623;28;20393;-64
2021/04/01 09:07:25;;;;;;;56.03;32.27;;;19.80;78.10;;;;;;5090755;28;20787;-64
2021/04/01 09:09:52;;;;;;;54.53;28.70;;;20.10;74.70;;;;;;5090574;28;20385;-64
2021/04/01 09:15:01;;;;;;;54.93;28.70;;;20.60;69.70;;;;;;5131402;27;20565;-64
2021/04/01 09:17:31;;;;;;;53.97;29.53;;;20.90;67.20;;;;;;5131390;27;20384;-64
2021/04/01 09:19:58;;;;;;;50.70;27.57;;;21.10;65.10;;;;;;5114301;27;20432;-64
2021/04/01 09:22:29;;;;;;;54.03;27.40;;;21.30;64.60;;;;;;5110974;28;20386;-64
2021/04/01 09:27:44;;;;;;;64.70;31.50;;;21.80;60.90;;;;;;5131477;27;20562;-66
2021/04/01 09:30:11;;;;;;;50.83;28.27;;;22.10;59.20;;;;;;5131339;27;20387;-64
2021/04/01 09:32:38;;;;;;;56.77;29.33;;;22.30;57.50;;;;;;5131628;27;20418;-66
2021/04/01 09:35:07;;;;;;;50.60;29.10;;;22.50;55.00;;;;;;5129828;27;20372;-66
2021/04/01 09:37:32;;;;;;;60.73;28.00;;;22.70;53.50;;;;;;5109512;28;20388;-64
2021/04/01 09:40:14;;;;;;;51.47;28.80;;;22.70;53.90;;;;;;5110534;28;20416;-65
2021/04/01 09:42:43;;;;;;;56.53;29.47;;;22.70;55.00;;;;;;5110502;28;20184;-64
2021/04/01 09:45:11;;;;;;;49.73;27.57;;;22.80;54.40;;;;;;5110537;28;20384;-64
2021/04/01 09:50:15;;;;;;;53.77;29.90;;;22.90;52.50;;;;;;5131264;27;20568;-64
2021/04/01 09:52:41;;;;;;;50.07;30.10;;;22.90;53.20;;;;;;5130567;27;20399;-64
2021/04/01 09:55:15;;;;;;;52.87;29.47;;;22.70;53.40;;;;;;5131199;27;20418;-64
2021/04/01 10:03:17;;;;;;;54.53;27.30;;;21.70;53.50;;;;;;5104094;28;20826;-65
2021/04/01 10:05:46;;;;;;;50.53;26.03;;;21.30;56.90;;;;;;5090562;28;20400;-65
2021/04/01 10:08:22;;;;;;;51.13;28.03;;;21.10;55.90;;;;;;5090404;28;20469;-65
2021/04/01 10:10:50;;;;;;;50.87;26.83;;;20.90;56.50;;;;;;5073140;28;20758;-65
2021/04/01 10:13:20;;;;;;;55.50;28.40;;;20.60;57.00;;;;;;5069037;28;20406;-65
2021/04/01 10:15:47;;;;;;;54.97;28.37;;;20.50;57.40;;;;;;5070065;28;20444;-65
2021/04/01 10:18:16;;;;;;;47.20;23.77;;;20.30;57.90;;;;;;5070110;28;20453;-65
2021/04/01 10:20:49;;;;;;;54.20;31.53;;;20.20;58.00;;;;;;5069870;28;20432;-65
2021/04/01 10:23:16;;;;;;;49.13;27.60;;;20.10;57.80;;;;;;5070126;28;20462;-65
2021/04/01 10:25:51;;;;;;;47.00;26.30;;;19.90;56.40;;;;;;5070106;28;20477;-65
2021/04/01 10:28:29;;;;;;;42.27;20.73;;;19.80;56.90;;;;;;5088679;28;20404;-65
2021/04/01 10:30:56;;;;;;;37.93;21.90;;;19.70;58.80;;;;;;5088959;28;20381;-65
2021/04/01 10:33:41;;;;;;;50.37;26.50;;;19.60;58.90;;;;;;5090071;28;20519;-65
2021/04/01 10:36:08;;;;;;;43.13;22.93;;;19.50;59.40;;;;;;5089841;28;20506;-65
2021/04/01 10:38:36;;;;;;;47.87;25.90;;;19.40;60.00;;;;;;5089986;28;20441;-65
2021/04/01 10:41:11;;;;;;;37.33;21.90;;;19.30;60.90;;;;;;5089125;28;20460;-65
2021/04/01 10:43:41;;;;;;;40.33;22.20;;;19.20;61.30;;;;;;5106075;28;20773;-65
2021/04/01 10:46:16;;;;;;;42.83;23.33;;;19.10;61.70;;;;;;5089546;28;20424;-65
2021/04/01 10:48:48;;;;;;;55.30;29.47;;;19.00;61.70;;;;;;5089825;28;20944;-65
2021/04/01 10:51:16;;;;;;;31.87;17.40;;;19.00;61.00;;;;;;5084915;28;21006;-65
2021/04/01 10:53:43;;;;;;;30.03;18.70;;;18.90;63.00;;;;;;5069614;28;20429;-65
2021/04/01 10:56:12;;;;;;;38.90;23.07;;;18.90;63.70;;;;;;5069395;28;20401;-65
2021/04/01 10:58:59;;;;;;;27.20;14.20;;;18.90;61.90;;;;;;5067830;28;20464;-65
2021/04/01 11:01:47;;;;;;;40.43;23.47;;;18.80;62.10;;;;;;5068777;28;20440;-65
2021/04/01 11:04:14;;;;;;;29.07;15.50;;;18.80;63.60;;;;;;5068015;28;20420;-65
2021/04/01 11:06:41;;;;;;;25.83;15.73;;;18.70;62.30;;;;;;5068944;28;20394;-65
2021/04/01 11:09:09;;;;;;;39.77;20.30;;;18.70;60.80;;;;;;5068109;28;20405;-65
2021/04/01 11:11:58;;;;;;;27.67;14.83;;;18.70;62.90;;;;;;5054862;28;20395;-65
2021/04/01 11:14:25;;;;;;;35.33;19.83;;;18.70;63.70;;;;;;5054648;28;20410;-65
2021/04/01 11:16:52;;;;;;;44.17;23.00;;;18.70;62.70;;;;;;5055730;28;20495;-65
2021/04/01 11:19:18;;;;;;;39.00;23.17;;;18.70;62.80;;;;;;5070601;28;20871;-65
2021/04/01 11:21:47;;;;;;;39.93;24.17;;;18.60;61.30;;;;;;5055780;28;20391;-65
2021/04/01 11:24:13;;;;;;;44.77;26.67;;;18.70;60.40;;;;;;5055622;28;20855;-65
2021/04/01 11:26:39;;;;;;;45.30;24.83;;;18.60;60.80;;;;;;5055310;28;20383;-65
2021/04/01 11:29:14;;;;;;;39.20;20.50;;;18.70;59.50;;;;;;5055544;28;20196;-65
2021/04/01 11:31:40;;;;;;;44.30;24.43;;;18.60;60.20;;;;;;5055730;28;20428;-65
2021/04/01 11:34:07;;;;;;;39.97;24.10;;;18.60;61.80;;;;;;5055958;28;20500;-65
2021/04/01 11:36:39;;;;;;;42.43;22.30;;;18.60;63.40;;;;;;5055271;28;20155;-64
2021/04/01 11:39:24;;;;;;;31.77;17.03;;;18.60;62.10;;;;;;5054174;28;20971;-65
2021/04/01 11:41:49;;;;;;;43.00;22.93;;;18.60;63.20;;;;;;5054274;28;20949;-65
2021/04/01 11:44:18;;;;;;;45.20;24.60;;;18.60;61.80;;;;;;5055293;28;20464;-65
2021/04/01 11:46:44;;;;;;;46.30;25.77;;;18.60;62.50;;;;;;5053787;28;20275;-65
2021/04/01 11:49:10;;;;;;;28.23;15.53;;;18.60;60.50;;;;;;5055057;28;20473;-64
2021/04/01 11:51:37;;;;;;;47.87;26.57;;;18.60;63.40;;;;;;5060592;28;20172;-64
2021/04/01 11:54:05;;;;;;;41.07;23.97;;;18.60;62.10;;;;;;5074831;28;20185;-64
2021/04/01 11:56:41;;;;;;;52.63;26.57;;;18.70;61.80;;;;;;5057413;28;20396;-65
2021/04/01 11:59:08;;;;;;;54.93;26.40;;;18.60;62.70;;;;;;5074665;28;21037;-65
2021/04/01 12:01:36;;;;;;;49.30;26.50;;;18.70;62.70;;;;;;5074947;28;20395;-65
2021/04/01 12:04:05;;;;;;;52.40;28.80;;;18.60;62.20;;;;;;5074978;28;20386;-65
2021/04/01 12:06:31;;;;;;;52.23;27.47;;;18.70;62.80;;;;;;5073632;28;20480;-65
2021/04/01 12:08:58;;;;;;;50.30;27.70;;;18.70;63.50;;;;;;5074010;28;20432;-65
2021/04/01 12:11:27;;;;;;;37.77;22.73;;;18.70;63.20;;;;;;5074405;28;20485;-65
2021/04/01 12:13:53;;;;;;;51.40;27.97;;;18.70;66.30;;;;;;5073642;28;20390;-65
2021/04/01 12:16:21;;;;;;;58.47;31.17;;;18.70;66.00;;;;;;5074546;28;20409;-65
2021/04/01 12:18:47;;;;;;;62.30;31.90;;;18.70;65.30;;;;;;5073241;28;20529;-64
2021/04/01 12:21:14;;;;;;;54.23;30.57;;;18.80;65.10;;;;;;5074197;28;20420;-64
2021/04/01 12:23:45;;;;;;;58.20;30.90;;;18.80;64.60;;;;;;5072763;28;20485;-64
2021/04/01 12:26:11;;;;;;;56.63;29.53;;;18.90;63.90;;;;;;5073322;28;20440;-65
2021/04/01 12:28:37;;;;;;;59.43;30.97;;;18.80;64.60;;;;;;5073410;28;20878;-65
2021/04/01 12:31:04;;;;;;;59.03;31.03;;;18.80;65.00;;;;;;5074446;28;20402;-65
2021/04/01 12:33:29;;;;;;;58.37;31.00;;;18.80;64.90;;;;;;5074328;28;20390;-65
2021/04/01 12:36:00;;;;;;;70.67;32.80;;;18.70;64.60;;;;;;5074068;28;20473;-65
2021/04/01 12:38:29;;;;;;;53.83;29.90;;;18.70;65.10;;;;;;5072878;28;20438;-64
2021/04/01 12:40:57;;;;;;;66.57;30.07;;;18.70;65.10;;;;;;5074147;28;20731;-65
2021/04/01 12:43:37;;;;;;;56.60;32.20;;;18.60;65.70;;;;;;5073521;28;20499;-64
2021/04/01 12:46:04;;;;;;;56.43;31.80;;;18.70;65.90;;;;;;5057171;28;20432;-64
2021/04/01 12:48:48;;;;;;;62.03;33.40;;;18.70;65.70;;;;;;5072649;28;20461;-64
2021/04/01 12:51:18;;;;;;;54.83;32.77;;;18.70;66.30;;;;;;5069140;28;20460;-64
2021/04/01 12:53:43;;;;;;;55.80;34.00;;;18.70;66.20;;;;;;5053704;28;20393;-65
2021/04/01 12:58:54;;;;;;;55.43;33.10;;;18.50;68.00;;;;;;5131241;27;20505;-64
2021/04/01 13:04:00;;;;;;;52.77;34.33;;;18.50;68.60;;;;;;5131508;27;20565;-64
2021/04/01 13:06:38;;;;;;;53.63;35.07;;;18.50;69.30;;;;;;5131653;27;20450;-64
2021/04/01 13:11:50;;;;;;;61.30;38.20;;;18.50;70.80;;;;;;5130314;28;20395;-65
2021/04/01 13:14:17;;;;;;;55.90;39.27;;;18.50;71.60;;;;;;5131477;27;20910;-65
2021/04/01 13:16:42;;;;;;;55.23;37.83;;;18.40;71.70;;;;;;5124138;27;20464;-64
2021/04/01 13:19:08;;;;;;;57.50;39.67;;;18.30;72.40;;;;;;5110788;28;20400;-64
2021/04/01 13:26:51;;;;;;;63.57;40.20;;;18.20;73.30;;;;;;5131407;27;20500;-65
2021/04/01 13:29:20;;;;;;;60.50;42.87;;;18.20;73.60;;;;;;5131233;27;20872;-65
2021/04/01 13:34:35;;;;;;;79.67;48.83;;;18.10;75.90;;;;;;5118019;27;20507;-65
2021/04/01 13:39:46;;;;;;;70.00;47.93;;;18.10;76.70;;;;;;5131369;27;20511;-64
2021/04/01 13:42:15;;;;;;;69.87;47.83;;;18.00;77.40;;;;;;5131607;27;20792;-64
2021/04/01 13:47:23;;;;;;;81.87;49.27;;;18.00;77.10;;;;;;5107909;27;20584;-64
2021/04/01 13:49:51;;;;;;;77.00;45.20;;;17.90;76.20;;;;;;5090647;28;20456;-64
2021/04/01 13:55:02;;;;;;;63.40;45.00;;;17.90;75.80;;;;;;5131363;27;20504;-64
2021/04/01 14:11:15;;;;;;;42.63;26.87;;;17.60;74.60;;;;;;5095724;28;20393;-64
2021/04/01 14:13:42;;;;;;;38.90;26.60;;;17.50;74.70;;;;;;5110847;28;20458;-64
2021/04/01 14:16:08;;;;;;;38.53;24.90;;;17.40;75.40;;;;;;5109647;28;20938;-64
2021/04/01 14:18:36;;;;;;;40.13;26.60;;;17.30;75.40;;;;;;5110786;28;20426;-64
2021/04/01 14:21:04;;;;;;;32.07;21.70;;;17.30;74.90;;;;;;5109525;28;20966;-64
2021/04/01 14:23:32;;;;;;;27.03;20.13;;;17.20;75.10;;;;;;5110551;28;20433;-64
2021/04/01 14:26:02;;;;;;;26.77;18.83;;;17.10;74.30;;;;;;5111029;28;20404;-64
2021/04/01 14:28:28;;;;;;;21.63;15.60;;;17.10;74.00;;;;;;5110680;28;20414;-64
2021/04/01 14:30:55;;;;;;;23.77;16.93;;;17.10;73.20;;;;;;5110582;28;20430;-65
2021/04/01 14:33:22;;;;;;;19.20;16.40;;;17.00;73.30;;;;;;5110547;28;20756;-65
2021/04/01 14:35:48;;;;;;;25.60;14.93;;;17.00;73.20;;;;;;5110608;28;20391;-65
2021/04/01 14:38:16;;;;;;;21.30;15.70;;;16.90;72.90;;;;;;5109265;28;20768;-64
2021/04/01 14:43:39;;;;;;;24.23;14.80;;;16.80;72.80;;;;;;5131634;27;20523;-65
2021/04/01 14:46:06;;;;;;;23.23;13.90;;;16.70;73.50;;;;;;5131543;27;20946;-65
2021/04/01 14:48:32;;;;;;;21.23;14.93;;;16.70;73.10;;;;;;5131336;27;20391;-65
2021/04/01 14:50:59;;;;;;;28.30;14.40;;;16.70;75.30;;;;;;5121765;27;20409;-65
2021/04/01 14:56:14;;;;;;;21.60;13.47;;;16.70;79.10;;;;;;5096050;28;20422;-65
2021/04/01 14:58:41;;;;;;;19.83;10.77;;;16.60;80.40;;;;;;5116044;28;20437;-65
2021/04/01 15:01:07;;;;;;;12.33;10.80;;;16.60;80.90;;;;;;5130927;27;20393;-65
2021/04/01 15:03:35;;;;;;;14.60;8.57;;;16.50;80.60;;;;;;5131232;27;20452;-65
2021/04/01 15:06:02;;;;;;;14.13;7.97;;;16.50;80.60;;;;;;5131206;27;20421;-65
2021/04/01 15:08:30;;;;;;;13.10;7.57;;;16.50;79.30;;;;;;5129779;28;20443;-65
2021/04/01 15:10:56;;;;;;;8.33;6.63;;;16.50;80.30;;;;;;5113302;28;20405;-65
2021/04/01 15:13:22;;;;;;;12.67;5.80;;;16.40;80.00;;;;;;5130757;28;20387;-65
2021/04/01 15:15:48;;;;;;;14.13;6.43;;;16.40;81.60;;;;;;5128709;28;20417;-65
2021/04/01 15:18:15;;;;;;;9.30;6.90;;;16.40;81.90;;;;;;5129770;28;20143;-65
2021/04/01 15:20:41;;;;;;;8.63;5.97;;;16.30;82.80;;;;;;5129745;28;20433;-65